sensor_id;sensor_type;location;lat;lon;timestamp;pressure;altitude;pressure_sealevel;temperature;humidity
60974;BME280;46846;51.528;5.076;2022-12-01T00:00:46;102180.16;;;4.64;80.17
60974;BME280;46846;51.528;5.076;2022-12-01T00:03:12;102180.09;;;4.59;80.50
60974;BME280;46846;51.528;5.076;2022-12-01T00:05:37;102188.06;;;4.64;80.23
60974;BME280;46846;51.528;5.076;2022-12-01T00:08:03;102181.91;;;4.60;80.54
60974;BME280;46846;51.528;5.076;2022-12-01T00:10:29;102171.34;;;4.62;80.58
60974;BME280;46846;51.528;5.076;2022-12-01T00:12:55;102180.16;;;4.64;80.85
60974;BME280;46846;51.528;5.076;2022-12-01T00:15:21;102170.47;;;4.63;80.83
60974;BME280;46846;51.528;5.076;2022-12-01T00:17:47;102174.03;;;4.65;80.65
60974;BME280;46846;51.528;5.076;2022-12-01T00:20:13;102174.00;;;4.62;80.50
60974;BME280;46846;51.528;5.076;2022-12-01T00:22:42;102174.00;;;4.60;80.43
60974;BME280;46846;51.528;5.076;2022-12-01T00:25:07;102173.06;;;4.58;80.64
60974;BME280;46846;51.528;5.076;2022-12-01T00:27:33;102174.84;;;4.61;80.80
60974;BME280;46846;51.528;5.076;2022-12-01T00:29:58;102173.13;;;4.63;80.29
60974;BME280;46846;51.528;5.076;2022-12-01T00:32:23;102172.97;;;4.52;80.91
60974;BME280;46846;51.528;5.076;2022-12-01T00:34:48;102168.72;;;4.62;80.54
60974;BME280;46846;51.528;5.076;2022-12-01T00:37:14;102164.34;;;4.64;80.22
60974;BME280;46846;51.528;5.076;2022-12-01T00:39:39;102174.88;;;4.64;80.23
60974;BME280;46846;51.528;5.076;2022-12-01T00:42:04;102166.06;;;4.59;80.19
60974;BME280;46846;51.528;5.076;2022-12-01T00:44:29;102169.59;;;4.61;80.90
60974;BME280;46846;51.528;5.076;2022-12-01T00:46:54;102175.75;;;4.63;80.08
60974;BME280;46846;51.528;5.076;2022-12-01T00:49:20;102174.91;;;4.65;80.28
60974;BME280;46846;51.528;5.076;2022-12-01T00:51:45;102175.81;;;4.66;80.12
60974;BME280;46846;51.528;5.076;2022-12-01T00:54:10;102169.63;;;4.62;80.38
60974;BME280;46846;51.528;5.076;2022-12-01T00:56:35;102175.75;;;4.63;80.34
60974;BME280;46846;51.528;5.076;2022-12-01T00:59:01;102177.47;;;4.59;80.15
60974;BME280;46846;51.528;5.076;2022-12-01T01:01:26;102178.38;;;4.63;80.19
60974;BME280;46846;51.528;5.076;2022-12-01T01:03:51;102180.06;;;4.55;80.55
60974;BME280;46846;51.528;5.076;2022-12-01T01:06:16;102181.88;;;4.59;80.28
60974;BME280;46846;51.528;5.076;2022-12-01T01:08:42;102174.00;;;4.62;80.30
60974;BME280;46846;51.528;5.076;2022-12-01T01:11:07;102181.00;;;4.60;80.25
60974;BME280;46846;51.528;5.076;2022-12-01T01:13:33;102188.84;;;4.55;80.58
60974;BME280;46846;51.528;5.076;2022-12-01T01:15:59;102188.00;;;4.59;80.34
60974;BME280;46846;51.528;5.076;2022-12-01T01:18:24;102187.16;;;4.59;80.44
60974;BME280;46846;51.528;5.076;2022-12-01T01:23:21;102184.53;;;4.62;80.34
60974;BME280;46846;51.528;5.076;2022-12-01T01:25:46;102187.97;;;4.55;80.05
60974;BME280;46846;51.528;5.076;2022-12-01T01:28:11;102196.69;;;4.49;81.08
60974;BME280;46846;51.528;5.076;2022-12-01T01:30:40;102202.00;;;4.54;80.80
60974;BME280;46846;51.528;5.076;2022-12-01T01:33:05;102201.09;;;4.50;80.83
60974;BME280;46846;51.528;5.076;2022-12-01T01:35:30;102197.59;;;4.53;80.40
60974;BME280;46846;51.528;5.076;2022-12-01T01:37:55;102203.63;;;4.44;80.93
60974;BME280;46846;51.528;5.076;2022-12-01T01:40:21;102205.50;;;4.49;80.65
60974;BME280;46846;51.528;5.076;2022-12-01T01:42:46;102201.94;;;4.49;81.24
60974;BME280;46846;51.528;5.076;2022-12-01T01:45:29;102209.09;;;4.59;79.67
60974;BME280;46846;51.528;5.076;2022-12-01T01:47:55;102200.28;;;4.56;80.13
60974;BME280;46846;51.528;5.076;2022-12-01T01:50:23;102199.34;;;4.52;80.77
60974;BME280;46846;51.528;5.076;2022-12-01T01:52:52;102198.56;;;4.58;80.62
60974;BME280;46846;51.528;5.076;2022-12-01T01:55:19;102205.63;;;4.62;79.98
60974;BME280;46846;51.528;5.076;2022-12-01T01:57:45;102197.69;;;4.59;80.51
60974;BME280;46846;51.528;5.076;2022-12-01T02:00:11;102196.81;;;4.60;80.44
60974;BME280;46846;51.528;5.076;2022-12-01T02:02:38;102197.72;;;4.60;79.95
60974;BME280;46846;51.528;5.076;2022-12-01T02:05:05;102199.47;;;4.63;80.25
60974;BME280;46846;51.528;5.076;2022-12-01T02:07:35;102197.78;;;4.65;80.55
60974;BME280;46846;51.528;5.076;2022-12-01T02:10:00;102195.06;;;4.59;79.95
60974;BME280;46846;51.528;5.076;2022-12-01T02:14:56;102199.47;;;4.63;80.11
60974;BME280;46846;51.528;5.076;2022-12-01T02:25:18;102205.53;;;4.56;80.49
60974;BME280;46846;51.528;5.076;2022-12-01T02:30:13;102208.25;;;4.60;80.40
60974;BME280;46846;51.528;5.076;2022-12-01T02:32:43;102202.13;;;4.61;80.09
60974;BME280;46846;51.528;5.076;2022-12-01T02:43:15;102201.94;;;4.49;80.63
60974;BME280;46846;51.528;5.076;2022-12-01T02:45:49;102203.78;;;4.55;80.90
60974;BME280;46846;51.528;5.076;2022-12-01T02:50:47;102203.84;;;4.58;80.21
60974;BME280;46846;51.528;5.076;2022-12-01T02:53:14;102204.66;;;4.54;80.39
60974;BME280;46846;51.528;5.076;2022-12-01T02:55:48;102198.53;;;4.56;80.58
60974;BME280;46846;51.528;5.076;2022-12-01T02:58:13;102200.28;;;4.54;80.69
60974;BME280;46846;51.528;5.076;2022-12-01T03:00:38;102200.28;;;4.56;80.50
60974;BME280;46846;51.528;5.076;2022-12-01T03:03:12;102195.03;;;4.57;80.28
60974;BME280;46846;51.528;5.076;2022-12-01T03:11:10;102199.38;;;4.54;80.99
60974;BME280;46846;51.528;5.076;2022-12-01T03:18:54;102201.19;;;4.59;80.07
60974;BME280;46846;51.528;5.076;2022-12-01T03:23:52;102200.31;;;4.59;80.09
60974;BME280;46846;51.528;5.076;2022-12-01T03:26:20;102194.22;;;4.61;80.45
60974;BME280;46846;51.528;5.076;2022-12-01T03:28:53;102195.94;;;4.61;80.49
60974;BME280;46846;51.528;5.076;2022-12-01T03:31:22;102198.56;;;4.59;80.09
60974;BME280;46846;51.528;5.076;2022-12-01T03:34:02;102192.41;;;4.59;80.11
60974;BME280;46846;51.528;5.076;2022-12-01T03:36:34;102196.81;;;4.60;80.40
60974;BME280;46846;51.528;5.076;2022-12-01T03:39:02;102199.44;;;4.58;80.75
60974;BME280;46846;51.528;5.076;2022-12-01T03:41:30;102199.38;;;4.54;80.40
60974;BME280;46846;51.528;5.076;2022-12-01T03:44:05;102204.69;;;4.55;80.10
60974;BME280;46846;51.528;5.076;2022-12-01T03:46:46;102206.47;;;4.58;80.40
60974;BME280;46846;51.528;5.076;2022-12-01T03:49:12;102205.63;;;4.60;80.31
60974;BME280;46846;51.528;5.076;2022-12-01T03:57:09;102206.41;;;4.55;80.06
60974;BME280;46846;51.528;5.076;2022-12-01T03:59:37;102202.03;;;4.55;79.97
60974;BME280;46846;51.528;5.076;2022-12-01T04:02:04;102202.91;;;4.54;79.99
60974;BME280;46846;51.528;5.076;2022-12-01T04:04:30;102206.41;;;4.55;80.03
60974;BME280;46846;51.528;5.076;2022-12-01T04:06:55;102206.44;;;4.56;80.56
60974;BME280;46846;51.528;5.076;2022-12-01T04:09:21;102202.97;;;4.59;80.73
60974;BME280;46846;51.528;5.076;2022-12-01T04:11:46;102203.84;;;4.61;80.27
60974;BME280;46846;51.528;5.076;2022-12-01T04:14:30;102207.38;;;4.60;80.31
60974;BME280;46846;51.528;5.076;2022-12-01T04:16:55;102203.84;;;4.59;79.92
60974;BME280;46846;51.528;5.076;2022-12-01T04:19:20;102202.91;;;4.56;80.02
60974;BME280;46846;51.528;5.076;2022-12-01T04:21:45;102198.50;;;4.55;80.42
60974;BME280;46846;51.528;5.076;2022-12-01T04:24:11;102204.69;;;4.55;80.38
60974;BME280;46846;51.528;5.076;2022-12-01T04:26:37;102206.41;;;4.55;80.48
60974;BME280;46846;51.528;5.076;2022-12-01T04:29:03;102210.84;;;4.57;80.46
60974;BME280;46846;51.528;5.076;2022-12-01T04:31:29;102203.84;;;4.58;79.93
60974;BME280;46846;51.528;5.076;2022-12-01T04:33:55;102195.91;;;4.59;80.51
60974;BME280;46846;51.528;5.076;2022-12-01T04:36:20;102198.50;;;4.55;79.84
60974;BME280;46846;51.528;5.076;2022-12-01T04:38:46;102193.22;;;4.55;80.31
60974;BME280;46846;51.528;5.076;2022-12-01T04:41:11;102199.44;;;4.57;80.39
60974;BME280;46846;51.528;5.076;2022-12-01T04:43:37;102201.16;;;4.56;80.40
60974;BME280;46846;51.528;5.076;2022-12-01T04:46:03;102204.72;;;4.57;80.19
60974;BME280;46846;51.528;5.076;2022-12-01T04:48:28;102209.09;;;4.58;80.04
60974;BME280;46846;51.528;5.076;2022-12-01T04:50:53;102202.06;;;4.57;80.09
60974;BME280;46846;51.528;5.076;2022-12-01T04:53:18;102202.94;;;4.57;80.08
60974;BME280;46846;51.528;5.076;2022-12-01T04:55:44;102201.19;;;4.59;79.80
60974;BME280;46846;51.528;5.076;2022-12-01T04:58:09;102208.13;;;4.51;80.47
60974;BME280;46846;51.528;5.076;2022-12-01T05:00:34;102203.78;;;4.55;79.94
60974;BME280;46846;51.528;5.076;2022-12-01T05:03:00;102205.59;;;4.59;80.53
60974;BME280;46846;51.528;5.076;2022-12-01T05:05:26;102189.72;;;4.54;80.24
60974;BME280;46846;51.528;5.076;2022-12-01T05:07:51;102193.25;;;4.56;80.58
60974;BME280;46846;51.528;5.076;2022-12-01T05:10:16;102192.38;;;4.54;80.06
60974;BME280;46846;51.528;5.076;2022-12-01T05:12:43;102194.03;;;4.47;80.21
60974;BME280;46846;51.528;5.076;2022-12-01T05:15:10;102200.22;;;4.49;80.50
60974;BME280;46846;51.528;5.076;2022-12-01T05:17:35;102203.75;;;4.51;80.12
60974;BME280;46846;51.528;5.076;2022-12-01T05:20:00;102213.41;;;4.51;80.06
60974;BME280;46846;51.528;5.076;2022-12-01T05:22:44;102205.53;;;4.53;80.24
60974;BME280;46846;51.528;5.076;2022-12-01T05:25:09;102204.72;;;4.57;79.88
60974;BME280;46846;51.528;5.076;2022-12-01T05:27:34;102203.84;;;4.58;80.27
60974;BME280;46846;51.528;5.076;2022-12-01T05:30:00;102201.13;;;4.55;80.45
60974;BME280;46846;51.528;5.076;2022-12-01T05:32:25;102209.06;;;4.55;80.18
60974;BME280;46846;51.528;5.076;2022-12-01T05:34:50;102202.00;;;4.54;79.74
60974;BME280;46846;51.528;5.076;2022-12-01T05:37:15;102196.75;;;4.54;80.23
60974;BME280;46846;51.528;5.076;2022-12-01T05:39:40;102208.13;;;4.49;80.36
60974;BME280;46846;51.528;5.076;2022-12-01T05:42:06;102207.25;;;4.50;80.04
60974;BME280;46846;51.528;5.076;2022-12-01T05:44:31;102210.75;;;4.51;80.28
60974;BME280;46846;51.528;5.076;2022-12-01T05:46:56;102198.44;;;4.50;80.18
60974;BME280;46846;51.528;5.076;2022-12-01T05:49:21;102204.63;;;4.52;80.25
60974;BME280;46846;51.528;5.076;2022-12-01T05:51:46;102207.25;;;4.52;80.76
60974;BME280;46846;51.528;5.076;2022-12-01T05:54:12;102215.19;;;4.54;79.98
60974;BME280;46846;51.528;5.076;2022-12-01T05:56:37;102220.44;;;4.50;80.25
60974;BME280;46846;51.528;5.076;2022-12-01T05:59:02;102222.19;;;4.51;80.01
60974;BME280;46846;51.528;5.076;2022-12-01T06:01:27;102216.06;;;4.53;80.11
60974;BME280;46846;51.528;5.076;2022-12-01T06:03:53;102212.53;;;4.52;80.09
60974;BME280;46846;51.528;5.076;2022-12-01T06:06:18;102214.31;;;4.55;79.98
60974;BME280;46846;51.528;5.076;2022-12-01T06:08:44;102210.81;;;4.56;79.77
60974;BME280;46846;51.528;5.076;2022-12-01T06:11:09;102216.09;;;4.56;80.13
60974;BME280;46846;51.528;5.076;2022-12-01T06:13:35;102217.81;;;4.54;79.79
60974;BME280;46846;51.528;5.076;2022-12-01T06:16:03;102213.41;;;4.49;79.73
60974;BME280;46846;51.528;5.076;2022-12-01T06:18:29;102216.03;;;4.51;80.43
60974;BME280;46846;51.528;5.076;2022-12-01T06:20:55;102213.47;;;4.54;80.02
60974;BME280;46846;51.528;5.076;2022-12-01T06:23:20;102223.97;;;4.53;80.26
60974;BME280;46846;51.528;5.076;2022-12-01T06:25:45;102218.66;;;4.51;80.22
60974;BME280;46846;51.528;5.076;2022-12-01T06:28:11;102222.16;;;4.47;80.44
60974;BME280;46846;51.528;5.076;2022-12-01T06:30:36;102223.94;;;4.49;80.26
60974;BME280;46846;51.528;5.076;2022-12-01T06:33:01;102225.72;;;4.52;80.22
60974;BME280;46846;51.528;5.076;2022-12-01T06:35:26;102223.03;;;4.49;80.80
60974;BME280;46846;51.528;5.076;2022-12-01T06:37:52;102221.28;;;4.48;79.98
60974;BME280;46846;51.528;5.076;2022-12-01T06:40:18;102223.00;;;4.47;80.37
60974;BME280;46846;51.528;5.076;2022-12-01T06:42:43;102226.56;;;4.49;80.36
60974;BME280;46846;51.528;5.076;2022-12-01T06:45:08;102226.63;;;4.54;79.73
60974;BME280;46846;51.528;5.076;2022-12-01T06:47:34;102230.09;;;4.51;79.63
60974;BME280;46846;51.528;5.076;2022-12-01T06:50:00;102228.34;;;4.52;80.41
60974;BME280;46846;51.528;5.076;2022-12-01T06:52:25;102226.63;;;4.54;79.99
60974;BME280;46846;51.528;5.076;2022-12-01T06:54:50;102233.66;;;4.54;80.20
60974;BME280;46846;51.528;5.076;2022-12-01T06:57:15;102236.25;;;4.52;80.61
60974;BME280;46846;51.528;5.076;2022-12-01T06:59:41;102243.31;;;4.53;80.24
60974;BME280;46846;51.528;5.076;2022-12-01T07:02:08;102240.66;;;4.51;80.64
60974;BME280;46846;51.528;5.076;2022-12-01T07:04:33;102251.13;;;4.48;80.42
60974;BME280;46846;51.528;5.076;2022-12-01T07:06:58;102253.78;;;4.48;80.13
60974;BME280;46846;51.528;5.076;2022-12-01T07:09:24;102245.03;;;4.49;80.32
60974;BME280;46846;51.528;5.076;2022-12-01T07:11:49;102256.50;;;4.53;80.02
60974;BME280;46846;51.528;5.076;2022-12-01T07:14:19;102253.75;;;4.45;80.01
60974;BME280;46846;51.528;5.076;2022-12-01T07:16:46;102255.56;;;4.49;79.82
60974;BME280;46846;51.528;5.076;2022-12-01T07:19:11;102252.03;;;4.49;79.83
60974;BME280;46846;51.528;5.076;2022-12-01T07:21:36;102250.28;;;4.48;79.86
60974;BME280;46846;51.528;5.076;2022-12-01T07:24:01;102253.78;;;4.48;80.27
60974;BME280;46846;51.528;5.076;2022-12-01T07:26:27;102254.56;;;4.40;80.44
60974;BME280;46846;51.528;5.076;2022-12-01T07:28:52;102248.44;;;4.44;80.25
60974;BME280;46846;51.528;5.076;2022-12-01T07:31:18;102254.63;;;4.44;80.20
60974;BME280;46846;51.528;5.076;2022-12-01T07:33:44;102256.41;;;4.48;80.41
60974;BME280;46846;51.528;5.076;2022-12-01T07:36:10;102262.56;;;4.47;80.73
60974;BME280;46846;51.528;5.076;2022-12-01T07:38:36;102263.38;;;4.43;80.57
60974;BME280;46846;51.528;5.076;2022-12-01T07:41:09;102267.75;;;4.43;80.37
60974;BME280;46846;51.528;5.076;2022-12-01T07:43:34;102270.41;;;4.43;80.45
60974;BME280;46846;51.528;5.076;2022-12-01T07:46:04;102268.66;;;4.43;80.45
60974;BME280;46846;51.528;5.076;2022-12-01T07:48:30;102274.84;;;4.45;80.45
60974;BME280;46846;51.528;5.076;2022-12-01T07:50:55;102271.31;;;4.46;80.14
60974;BME280;46846;51.528;5.076;2022-12-01T07:53:20;102272.16;;;4.42;80.94
60974;BME280;46846;51.528;5.076;2022-12-01T07:55:47;102270.38;;;4.41;80.49
60974;BME280;46846;51.528;5.076;2022-12-01T07:58:13;102266.91;;;4.44;80.68
60974;BME280;46846;51.528;5.076;2022-12-01T08:00:38;102266.03;;;4.43;80.17
60974;BME280;46846;51.528;5.076;2022-12-01T08:03:03;102279.22;;;4.46;80.20
60974;BME280;46846;51.528;5.076;2022-12-01T08:05:29;102273.97;;;4.46;80.22
60974;BME280;46846;51.528;5.076;2022-12-01T08:07:54;102280.06;;;4.44;80.71
60974;BME280;46846;51.528;5.076;2022-12-01T08:10:19;102282.78;;;4.48;80.51
60974;BME280;46846;51.528;5.076;2022-12-01T08:12:45;102284.56;;;4.49;80.38
60974;BME280;46846;51.528;5.076;2022-12-01T08:15:10;102285.34;;;4.44;80.36
60974;BME280;46846;51.528;5.076;2022-12-01T08:17:36;102288.00;;;4.45;80.43
60974;BME280;46846;51.528;5.076;2022-12-01T08:20:01;102287.09;;;4.43;80.67
60974;BME280;46846;51.528;5.076;2022-12-01T08:22:26;102301.16;;;4.42;80.54
60974;BME280;46846;51.528;5.076;2022-12-01T08:24:51;102292.34;;;4.42;80.11
60974;BME280;46846;51.528;5.076;2022-12-01T08:27:16;102295.00;;;4.42;80.16
60974;BME280;46846;51.528;5.076;2022-12-01T08:29:42;102290.66;;;4.45;80.21
60974;BME280;46846;51.528;5.076;2022-12-01T08:32:07;102288.91;;;4.46;80.16
60974;BME280;46846;51.528;5.076;2022-12-01T08:34:34;102282.75;;;4.45;80.07
60974;BME280;46846;51.528;5.076;2022-12-01T08:37:01;102278.44;;;4.50;80.01
60974;BME280;46846;51.528;5.076;2022-12-01T08:39:26;102285.50;;;4.53;80.41
60974;BME280;46846;51.528;5.076;2022-12-01T08:41:51;102292.47;;;4.49;79.64
60974;BME280;46846;51.528;5.076;2022-12-01T08:44:17;102300.22;;;4.38;80.60
60974;BME280;46846;51.528;5.076;2022-12-01T08:46:42;102300.19;;;4.37;81.01
60974;BME280;46846;51.528;5.076;2022-12-01T08:49:07;102300.22;;;4.40;80.44
60974;BME280;46846;51.528;5.076;2022-12-01T08:51:32;102307.25;;;4.40;80.81
60974;BME280;46846;51.528;5.076;2022-12-01T08:53:58;102306.44;;;4.42;80.56
60974;BME280;46846;51.528;5.076;2022-12-01T08:56:25;102311.59;;;4.37;80.55
60974;BME280;46846;51.528;5.076;2022-12-01T08:58:50;102312.56;;;4.43;80.35
60974;BME280;46846;51.528;5.076;2022-12-01T09:01:16;102310.84;;;4.43;80.60
60974;BME280;46846;51.528;5.076;2022-12-01T09:03:42;102310.84;;;4.43;80.17
60974;BME280;46846;51.528;5.076;2022-12-01T09:06:08;102308.19;;;4.45;80.50
60974;BME280;46846;51.528;5.076;2022-12-01T09:08:34;102315.25;;;4.44;80.76
60974;BME280;46846;51.528;5.076;2022-12-01T09:11:00;102313.50;;;4.46;80.20
60974;BME280;46846;51.528;5.076;2022-12-01T09:13:26;102322.31;;;4.47;80.60
60974;BME280;46846;51.528;5.076;2022-12-01T09:15:59;102314.38;;;4.45;80.78
60974;BME280;46846;51.528;5.076;2022-12-01T09:18:25;102318.72;;;4.42;80.08
60974;BME280;46846;51.528;5.076;2022-12-01T09:20:51;102317.00;;;4.45;80.17
60974;BME280;46846;51.528;5.076;2022-12-01T09:23:16;102321.38;;;4.43;80.34
60974;BME280;46846;51.528;5.076;2022-12-01T09:25:41;102325.72;;;4.41;80.82
60974;BME280;46846;51.528;5.076;2022-12-01T09:28:07;102323.16;;;4.44;79.97
60974;BME280;46846;51.528;5.076;2022-12-01T09:30:33;102323.19;;;4.47;80.41
60974;BME280;46846;51.528;5.076;2022-12-01T09:32:59;102325.81;;;4.47;80.12
60974;BME280;46846;51.528;5.076;2022-12-01T09:35:24;102323.19;;;4.47;79.84
60974;BME280;46846;51.528;5.076;2022-12-01T09:37:50;102324.06;;;4.48;79.98
60974;BME280;46846;51.528;5.076;2022-12-01T09:40:15;102323.19;;;4.47;79.89
60974;BME280;46846;51.528;5.076;2022-12-01T09:42:41;102325.88;;;4.50;79.63
60974;BME280;46846;51.528;5.076;2022-12-01T09:45:08;102320.53;;;4.47;79.61
60974;BME280;46846;51.528;5.076;2022-12-01T09:47:41;102322.28;;;4.45;79.73
60974;BME280;46846;51.528;5.076;2022-12-01T09:50:16;102317.91;;;4.47;80.17
60974;BME280;46846;51.528;5.076;2022-12-01T09:52:48;102310.00;;;4.47;80.05
60974;BME280;46846;51.528;5.076;2022-12-01T09:55:16;102313.53;;;4.48;79.92
60974;BME280;46846;51.528;5.076;2022-12-01T09:57:42;102309.13;;;4.47;79.80
60974;BME280;46846;51.528;5.076;2022-12-01T10:00:18;102312.53;;;4.41;80.73
60974;BME280;46846;51.528;5.076;2022-12-01T10:02:51;102303.78;;;4.42;80.00
60974;BME280;46846;51.528;5.076;2022-12-01T10:05:20;102306.50;;;4.47;80.21
60974;BME280;46846;51.528;5.076;2022-12-01T10:10:19;102292.47;;;4.51;80.03
60974;BME280;46846;51.528;5.076;2022-12-01T10:12:47;102303.91;;;4.51;79.51
60974;BME280;46846;51.528;5.076;2022-12-01T10:15:14;102303.88;;;4.50;79.68
60974;BME280;46846;51.528;5.076;2022-12-01T10:17:44;102286.28;;;4.46;79.64
60974;BME280;46846;51.528;5.076;2022-12-01T10:22:52;102294.13;;;4.43;79.75
60974;BME280;46846;51.528;5.076;2022-12-01T10:25:23;102291.53;;;4.46;80.05
60974;BME280;46846;51.528;5.076;2022-12-01T10:30:34;102294.19;;;4.47;79.65
60974;BME280;46846;51.528;5.076;2022-12-01T10:33:16;102289.84;;;4.51;79.83
60974;BME280;46846;51.528;5.076;2022-12-01T10:35:43;102290.75;;;4.51;79.79
60974;BME280;46846;51.528;5.076;2022-12-01T10:38:12;102287.22;;;4.53;79.93
60974;BME280;46846;51.528;5.076;2022-12-01T10:40:39;102287.19;;;4.51;79.66
60974;BME280;46846;51.528;5.076;2022-12-01T10:43:07;102288.97;;;4.52;79.81
60974;BME280;46846;51.528;5.076;2022-12-01T10:45:34;102283.63;;;4.47;79.80
60974;BME280;46846;51.528;5.076;2022-12-01T10:50:32;102288.00;;;4.45;80.21
60974;BME280;46846;51.528;5.076;2022-12-01T10:52:58;102288.88;;;4.44;80.85
60974;BME280;46846;51.528;5.076;2022-12-01T10:55:27;102291.53;;;4.47;79.92
60974;BME280;46846;51.528;5.076;2022-12-01T10:57:54;102291.59;;;4.50;79.80
60974;BME280;46846;51.528;5.076;2022-12-01T11:00:21;102285.41;;;4.48;80.01
60974;BME280;46846;51.528;5.076;2022-12-01T11:02:47;102282.84;;;4.51;80.25
60974;BME280;46846;51.528;5.076;2022-12-01T11:05:22;102284.63;;;4.56;80.23
60974;BME280;46846;51.528;5.076;2022-12-01T11:07:48;102279.34;;;4.54;80.40
60974;BME280;46846;51.528;5.076;2022-12-01T11:12:51;102286.31;;;4.49;80.47
60974;BME280;46846;51.528;5.076;2022-12-01T11:15:21;102286.34;;;4.50;80.30
60974;BME280;46846;51.528;5.076;2022-12-01T11:17:47;102286.34;;;4.50;80.03
60974;BME280;46846;51.528;5.076;2022-12-01T11:25:33;102272.31;;;4.55;79.93
60974;BME280;46846;51.528;5.076;2022-12-01T11:27:59;102274.09;;;4.54;80.25
60974;BME280;46846;51.528;5.076;2022-12-01T11:30:26;102262.69;;;4.57;79.84
60974;BME280;46846;51.528;5.076;2022-12-01T11:32:59;102267.00;;;4.51;79.92
60974;BME280;46846;51.528;5.076;2022-12-01T11:35:27;102273.22;;;4.55;80.67
60974;BME280;46846;51.528;5.076;2022-12-01T11:37:54;102259.16;;;4.56;80.58
60974;BME280;46846;51.528;5.076;2022-12-01T11:40:24;102265.28;;;4.54;80.20
60974;BME280;46846;51.528;5.076;2022-12-01T11:42:51;102262.56;;;4.46;80.44
60974;BME280;46846;51.528;5.076;2022-12-01T11:45:21;102252.94;;;4.49;80.63
60974;BME280;46846;51.528;5.076;2022-12-01T11:50:23;102253.06;;;4.59;80.60
60974;BME280;46846;51.528;5.076;2022-12-01T11:52:49;102248.69;;;4.61;79.93
60974;BME280;46846;51.528;5.076;2022-12-01T11:55:18;102238.16;;;4.62;80.20
60974;BME280;46846;51.528;5.076;2022-12-01T11:57:44;102241.59;;;4.55;80.02
60974;BME280;46846;51.528;5.076;2022-12-01T12:00:17;102237.19;;;4.56;80.73
60974;BME280;46846;51.528;5.076;2022-12-01T12:03:05;102233.66;;;4.54;80.36
60974;BME280;46846;51.528;5.076;2022-12-01T12:16:01;102226.69;;;4.59;80.21
60974;BME280;46846;51.528;5.076;2022-12-01T12:18:38;102227.59;;;4.61;80.02
60974;BME280;46846;51.528;5.076;2022-12-01T12:26:40;102219.75;;;4.67;79.47
60974;BME280;46846;51.528;5.076;2022-12-01T12:37:09;102213.53;;;4.62;79.82
60974;BME280;46846;51.528;5.076;2022-12-01T12:39:45;102218.84;;;4.63;79.19
60974;BME280;46846;51.528;5.076;2022-12-01T12:42:24;102217.06;;;4.62;79.99
60974;BME280;46846;51.528;5.076;2022-12-01T12:52:53;102202.13;;;4.63;80.12
60974;BME280;46846;51.528;5.076;2022-12-01T12:55:31;102198.59;;;4.61;79.65
60974;BME280;46846;51.528;5.076;2022-12-01T12:58:12;102205.63;;;4.62;79.67
60974;BME280;46846;51.528;5.076;2022-12-01T13:00:39;102193.34;;;4.64;79.28
60974;BME280;46846;51.528;5.076;2022-12-01T13:05:46;102203.94;;;4.67;79.21
60974;BME280;46846;51.528;5.076;2022-12-01T13:08:20;102202.22;;;4.71;78.99
60974;BME280;46846;51.528;5.076;2022-12-01T13:10:49;102199.63;;;4.72;78.87
60974;BME280;46846;51.528;5.076;2022-12-01T13:13:26;102196.09;;;4.73;79.12
60974;BME280;46846;51.528;5.076;2022-12-01T13:15:52;102191.72;;;4.75;78.73
60974;BME280;46846;51.528;5.076;2022-12-01T13:20:46;102188.13;;;4.67;78.97
60974;BME280;46846;51.528;5.076;2022-12-01T13:23:14;102179.41;;;4.74;77.54
60974;BME280;46846;51.528;5.076;2022-12-01T13:25:40;102188.13;;;4.70;79.11
60974;BME280;46846;51.528;5.076;2022-12-01T13:28:11;102185.47;;;4.65;79.31
60974;BME280;46846;51.528;5.076;2022-12-01T13:30:39;102181.97;;;4.68;79.69
60974;BME280;46846;51.528;5.076;2022-12-01T13:33:04;102177.63;;;4.72;79.53
60974;BME280;46846;51.528;5.076;2022-12-01T13:35:34;102182.09;;;4.76;78.87
60974;BME280;46846;51.528;5.076;2022-12-01T13:40:41;102174.16;;;4.77;79.32
60974;BME280;46846;51.528;5.076;2022-12-01T13:43:14;102174.16;;;4.77;78.13
60974;BME280;46846;51.528;5.076;2022-12-01T13:45:41;102176.69;;;4.67;79.37
60974;BME280;46846;51.528;5.076;2022-12-01T13:48:25;102166.19;;;4.70;79.39
60974;BME280;46846;51.528;5.076;2022-12-01T13:50:55;102170.63;;;4.75;79.06
60974;BME280;46846;51.528;5.076;2022-12-01T13:53:34;102173.25;;;4.74;78.86
60974;BME280;46846;51.528;5.076;2022-12-01T14:01:32;102174.16;;;4.74;78.98
60974;BME280;46846;51.528;5.076;2022-12-01T14:03:42;102172.38;;;4.73;78.97
60974;BME280;46846;51.528;5.076;2022-12-01T14:08:50;102168.88;;;4.74;79.32
60974;BME280;46846;51.528;5.076;2022-12-01T14:11:18;102173.22;;;4.71;79.85
60974;BME280;46846;51.528;5.076;2022-12-01T14:13:45;102179.31;;;4.67;79.54
60974;BME280;46846;51.528;5.076;2022-12-01T14:16:13;102175.84;;;4.71;78.92
60974;BME280;46846;51.528;5.076;2022-12-01T14:18:43;102179.38;;;4.73;77.80
60974;BME280;46846;51.528;5.076;2022-12-01T14:21:13;102175.03;;;4.76;79.49
60974;BME280;46846;51.528;5.076;2022-12-01T14:23:39;102175.06;;;4.78;78.80
60974;BME280;46846;51.528;5.076;2022-12-01T14:26:22;102181.19;;;4.75;79.20
60974;BME280;46846;51.528;5.076;2022-12-01T14:31:20;102175.00;;;4.73;78.96
60974;BME280;46846;51.528;5.076;2022-12-01T14:39:19;102175.91;;;4.75;79.65
60974;BME280;46846;51.528;5.076;2022-12-01T14:41:56;102172.44;;;4.79;78.62
60974;BME280;46846;51.528;5.076;2022-12-01T14:44:30;102176.84;;;4.81;78.56
60974;BME280;46846;51.528;5.076;2022-12-01T14:49:41;102171.50;;;4.74;79.98
60974;BME280;46846;51.528;5.076;2022-12-01T14:52:28;102165.34;;;4.75;79.24
60974;BME280;46846;51.528;5.076;2022-12-01T14:54:57;102167.13;;;4.76;79.40
60974;BME280;46846;51.528;5.076;2022-12-01T14:57:33;102170.56;;;4.69;79.19
60974;BME280;46846;51.528;5.076;2022-12-01T15:00:22;102167.09;;;4.73;79.54
60974;BME280;46846;51.528;5.076;2022-12-01T15:02:52;102163.53;;;4.71;79.64
60974;BME280;46846;51.528;5.076;2022-12-01T15:05:20;102158.31;;;4.74;79.50